Schneiders Prairie, Washington
Current Conditions -  °F | °C
As of 4:56 AM on Saturday 01 Nov 2014 (Local Time) from KOLM Reporting Station
Haze Haze  
Wind Chill: 47°   Ceiling: 300
Heat Index: 47°   Visibility: 1.5mi
Dew Point: 46°   Wind: 0mph
Humidity: 97%   Direction: NA
Pressure: 29.86"   Gusts: NA
Location:  46.9755°N, 122.872°W
Report Text: KOLM 011156Z AUTO 00000KT 1 1/2SM BR OVC003 08/08 A2986 RMK AO2 T00830078
Loading
Personal Weather Stations






























Interactive Weather Map
Tropical Storm Tracking
New forecast layout! Learn more

10-Day Weather Forecast

Advertisements
Track Severe Weather on mobile